createdAt,value
2018-07-08T00:01:50.295Z,99.90
2018-07-08T00:04:19.479Z,99.90
2018-07-08T00:09:18.002Z,99.90
2018-07-08T00:11:47.121Z,99.90
2018-07-08T00:14:16.700Z,99.90
2018-07-08T00:16:45.790Z,99.90
2018-07-08T00:19:14.934Z,99.90
2018-07-08T00:21:44.590Z,99.90
2018-07-08T00:24:13.722Z,99.90
2018-07-08T00:26:42.853Z,99.90
2018-07-08T00:31:41.148Z,99.90
2018-07-08T00:36:39.132Z,99.90
2018-07-08T00:39:08.702Z,99.90
2018-07-08T00:41:38.060Z,99.90
2018-07-08T00:44:07.849Z,99.90
2018-07-08T00:46:37.784Z,99.90
2018-07-08T00:49:07.276Z,99.90
2018-07-08T00:51:36.558Z,99.90
2018-07-08T00:54:05.730Z,99.90
2018-07-08T00:56:34.850Z,99.90
2018-07-08T00:59:04.142Z,99.90
2018-07-08T01:01:33.305Z,99.90
2018-07-08T01:04:02.415Z,99.90
2018-07-08T01:06:31.705Z,99.90
2018-07-08T01:09:00.827Z,99.90
2018-07-08T01:11:29.989Z,99.90
2018-07-08T01:13:59.255Z,99.90
2018-07-08T01:16:28.373Z,99.90
2018-07-08T01:18:57.517Z,99.90
2018-07-08T01:21:26.830Z,99.90
2018-07-08T01:23:55.990Z,99.90
2018-07-08T01:26:25.194Z,99.90
2018-07-08T01:28:54.415Z,99.90
2018-07-08T01:31:23.636Z,99.90
2018-07-08T01:33:53.000Z,99.90
2018-07-08T01:36:23.266Z,99.90
2018-07-08T01:38:52.379Z,99.90
2018-07-08T01:41:21.512Z,99.90
2018-07-08T01:43:51.233Z,99.90
2018-07-08T01:46:20.409Z,99.90
2018-07-08T01:48:49.511Z,99.90
2018-07-08T01:51:18.675Z,99.90
2018-07-08T01:53:47.766Z,99.90
2018-07-08T01:56:16.916Z,99.90
2018-07-08T01:58:46.990Z,99.90
2018-07-08T02:01:16.825Z,99.90
2018-07-08T02:03:45.991Z,99.90
2018-07-08T02:06:15.260Z,99.90
2018-07-08T02:08:45.032Z,99.90
2018-07-08T02:11:14.170Z,99.90
2018-07-08T02:13:43.386Z,99.90
2018-07-08T02:16:12.570Z,99.90
2018-07-08T02:18:41.981Z,99.90
2018-07-08T02:23:40.132Z,99.90
2018-07-08T02:26:09.246Z,99.90
2018-07-08T02:28:39.654Z,99.90
2018-07-08T02:31:08.862Z,99.90
2018-07-08T02:33:38.538Z,99.90
2018-07-08T02:36:07.844Z,99.90
2018-07-08T02:38:37.127Z,99.90
2018-07-08T02:41:06.317Z,99.90
2018-07-08T02:43:35.564Z,99.90
2018-07-08T02:46:04.747Z,99.90
2018-07-08T02:48:33.954Z,99.90
2018-07-08T02:51:03.852Z,99.90
2018-07-08T02:53:32.974Z,99.90
2018-07-08T02:56:02.103Z,99.90
2018-07-08T02:58:31.365Z,99.90
2018-07-08T03:01:01.377Z,99.90
2018-07-08T03:03:30.978Z,99.90
2018-07-08T03:06:00.207Z,99.90
2018-07-08T03:10:58.183Z,99.90
2018-07-08T03:13:27.430Z,99.90
2018-07-08T03:15:56.517Z,99.90
2018-07-08T03:18:25.630Z,99.90
2018-07-08T03:20:55.339Z,99.90
2018-07-08T03:23:24.440Z,99.90
2018-07-08T03:25:53.541Z,99.90
2018-07-08T03:28:22.834Z,99.90
2018-07-08T03:30:51.949Z,99.90
2018-07-08T03:33:21.140Z,99.90
2018-07-08T03:35:51.384Z,99.90
2018-07-08T03:38:20.513Z,99.90
2018-07-08T03:40:49.644Z,99.90
2018-07-08T03:43:18.924Z,99.90
2018-07-08T03:45:48.035Z,99.90
2018-07-08T03:48:17.223Z,99.90
2018-07-08T03:50:46.468Z,99.90
2018-07-08T03:53:15.572Z,99.90
2018-07-08T03:55:44.727Z,99.90
2018-07-08T03:58:13.948Z,99.90
2018-07-08T04:00:43.096Z,99.90
2018-07-08T04:03:12.204Z,99.90
2018-07-08T04:05:41.508Z,99.90
2018-07-08T04:08:10.640Z,99.90
2018-07-08T04:10:40.368Z,99.90
2018-07-08T04:13:09.616Z,99.90
2018-07-08T04:15:38.782Z,99.90
2018-07-08T04:20:39.840Z,99.90
2018-07-08T04:25:37.680Z,99.90
2018-07-08T04:28:06.908Z,99.90
2018-07-08T04:30:35.990Z,99.90
2018-07-08T04:33:05.087Z,99.90
2018-07-08T04:38:03.114Z,99.90
2018-07-08T04:40:32.602Z,99.90
2018-07-08T04:43:01.843Z,99.90
2018-07-08T04:45:30.941Z,99.90
2018-07-08T04:48:00.175Z,99.90
2018-07-08T04:50:29.431Z,99.90
2018-07-08T04:52:58.520Z,99.90
2018-07-08T04:55:27.644Z,99.90
2018-07-08T04:57:56.910Z,99.90
2018-07-08T05:00:26.005Z,99.90
2018-07-08T05:02:55.114Z,99.90
2018-07-08T05:05:24.450Z,99.90
2018-07-08T05:10:22.312Z,99.90
2018-07-08T05:12:51.613Z,99.90
2018-07-08T05:15:21.460Z,99.90
2018-07-08T05:17:50.701Z,99.90
2018-07-08T05:20:19.975Z,99.90
2018-07-08T05:22:49.065Z,99.90
2018-07-08T05:25:18.163Z,99.90
2018-07-08T05:27:47.395Z,99.90
2018-07-08T05:30:16.545Z,99.90
2018-07-08T05:35:14.456Z,99.90
2018-07-08T05:37:44.134Z,99.90
2018-07-08T05:40:13.649Z,99.90
2018-07-08T05:42:42.875Z,99.90
2018-07-08T05:45:12.025Z,99.90
2018-07-08T05:50:09.908Z,99.90
2018-07-08T05:52:40.012Z,99.90
2018-07-08T05:55:09.161Z,99.90
2018-07-08T06:00:07.329Z,99.90
2018-07-08T06:02:36.585Z,99.90
2018-07-08T06:05:05.835Z,99.90
2018-07-08T06:07:34.945Z,99.90
2018-07-08T06:10:04.127Z,99.90
2018-07-08T06:12:33.380Z,99.90
2018-07-08T06:15:02.521Z,99.90
2018-07-08T06:17:31.645Z,99.90
2018-07-08T06:20:00.829Z,99.90
2018-07-08T06:22:29.941Z,99.90
2018-07-08T06:24:59.081Z,99.90
2018-07-08T06:27:28.341Z,99.90
2018-07-08T06:29:57.429Z,99.90
2018-07-08T06:32:26.573Z,99.90
2018-07-08T06:37:24.366Z,99.90
2018-07-08T06:39:53.451Z,99.90
2018-07-08T06:42:22.916Z,99.90
2018-07-08T06:44:52.001Z,99.90
2018-07-08T06:47:21.108Z,99.90
2018-07-08T06:49:50.512Z,99.90
2018-07-08T06:52:19.596Z,99.90
2018-07-08T06:54:48.714Z,99.90
2018-07-08T06:57:18.011Z,99.90
2018-07-08T06:59:47.142Z,99.90
2018-07-08T07:02:16.269Z,99.90
2018-07-08T07:04:45.586Z,99.90
2018-07-08T07:07:14.692Z,99.90
2018-07-08T07:09:43.792Z,99.90
2018-07-08T07:12:13.170Z,99.90
2018-07-08T07:14:42.559Z,99.90
2018-07-08T07:17:11.637Z,99.90
2018-07-08T07:19:40.875Z,99.90
2018-07-08T07:22:10.079Z,99.90
2018-07-08T07:24:39.157Z,99.90
2018-07-08T07:27:08.341Z,99.90
2018-07-08T07:29:37.404Z,99.90
2018-07-08T07:32:06.574Z,99.90
2018-07-08T07:34:35.781Z,99.90
2018-07-08T07:37:04.969Z,99.90
2018-07-08T07:39:33.989Z,99.90
2018-07-08T07:44:32.163Z,99.90
2018-07-08T07:47:01.741Z,99.90
2018-07-08T07:49:30.973Z,99.90
2018-07-08T07:52:00.095Z,99.90
2018-07-08T07:54:29.171Z,99.90
2018-07-08T07:59:27.199Z,99.90
2018-07-08T08:01:56.282Z,99.90
2018-07-08T08:04:25.462Z,99.90
2018-07-08T08:06:54.562Z,99.90
2018-07-08T08:09:23.656Z,99.90
2018-07-08T08:11:53.350Z,99.90
2018-07-08T08:16:51.152Z,99.90
2018-07-08T08:19:20.613Z,99.90
2018-07-08T08:21:49.720Z,99.90
2018-07-08T08:24:18.819Z,99.90
2018-07-08T08:26:48.043Z,99.90
2018-07-08T08:29:17.121Z,99.90
2018-07-08T08:31:46.206Z,99.90
2018-07-08T08:37:18.113Z,99.90
2018-07-08T08:39:47.893Z,99.90
2018-07-08T08:47:15.269Z,99.90
2018-07-08T08:49:44.377Z,99.90
2018-07-08T08:52:13.511Z,99.90
2018-07-08T08:54:42.746Z,99.90
2018-07-08T08:57:12.304Z,99.90
2018-07-08T08:59:41.521Z,99.90
2018-07-08T09:02:11.103Z,99.90
2018-07-08T09:04:41.095Z,99.90
2018-07-08T09:07:11.581Z,99.90
2018-07-08T09:09:40.816Z,99.90
2018-07-08T09:12:11.586Z,99.90
2018-07-08T09:14:41.494Z,99.90
2018-07-08T09:17:10.873Z,99.90
2018-07-08T09:19:40.010Z,99.90
2018-07-08T09:22:09.578Z,99.90
2018-07-08T09:24:38.961Z,99.90
2018-07-08T09:27:08.161Z,99.90
2018-07-08T09:29:37.575Z,99.90
2018-07-08T09:32:06.740Z,99.90
2018-07-08T09:34:36.750Z,99.90
2018-07-08T09:37:05.963Z,99.90
2018-07-08T09:39:35.959Z,99.90
2018-07-08T09:42:05.077Z,99.90
2018-07-08T09:44:34.363Z,99.90
2018-07-08T09:47:03.481Z,99.90
2018-07-08T09:49:33.759Z,99.90
2018-07-08T09:52:03.925Z,99.90
2018-07-08T09:54:33.030Z,99.90
2018-07-08T09:57:02.229Z,99.90
2018-07-08T09:59:31.551Z,99.90
2018-07-08T10:02:00.662Z,99.90
2018-07-08T10:04:29.842Z,99.90
2018-07-08T10:06:59.031Z,99.90
2018-07-08T10:09:28.476Z,99.90
2018-07-08T10:11:57.646Z,99.90
2018-07-08T10:14:26.838Z,99.90
2018-07-08T10:16:55.940Z,99.90
2018-07-08T10:19:25.148Z,99.90
2018-07-08T10:21:54.378Z,99.90
2018-07-08T10:24:23.500Z,99.90
2018-07-08T10:27:19.762Z,99.90
2018-07-08T10:29:48.890Z,99.90
2018-07-08T10:32:18.309Z,99.90
2018-07-08T10:34:47.520Z,99.90
2018-07-08T10:37:16.652Z,99.90
2018-07-08T10:42:14.571Z,99.90
2018-07-08T10:44:43.698Z,99.90
2018-07-08T10:47:12.900Z,99.90
2018-07-08T10:49:42.681Z,99.90
2018-07-08T10:52:11.761Z,99.90
2018-07-08T10:54:41.106Z,99.90
2018-07-08T10:57:10.248Z,99.90
2018-07-08T10:59:39.436Z,99.90
2018-07-08T11:02:08.680Z,99.90
2018-07-08T11:04:37.893Z,99.90
2018-07-08T11:07:07.022Z,99.90
2018-07-08T11:09:36.302Z,99.80
2018-07-08T11:12:05.418Z,99.90
2018-07-08T11:17:04.309Z,99.00
2018-07-08T11:19:33.491Z,99.90
2018-07-08T11:22:02.616Z,99.60
2018-07-08T11:29:29.605Z,97.00
2018-07-08T11:31:59.097Z,97.10
2018-07-08T11:34:28.227Z,96.50
2018-07-08T11:36:57.361Z,96.60
2018-07-08T11:39:26.931Z,96.70
2018-07-08T11:41:56.041Z,95.30
2018-07-08T11:44:25.243Z,94.70
2018-07-08T11:46:54.624Z,92.90
2018-07-08T11:49:23.767Z,91.40
2018-07-08T11:51:53.744Z,90.90
2018-07-08T11:54:23.364Z,92.00
2018-07-08T11:56:52.953Z,93.40
2018-07-08T11:59:22.124Z,91.30
2018-07-08T12:01:51.277Z,91.40
2018-07-08T12:04:20.394Z,93.50
2018-07-08T12:11:48.288Z,90.30
2018-07-08T12:14:17.389Z,91.40
2018-07-08T12:16:46.664Z,91.30
2018-07-08T12:19:15.800Z,90.30
2018-07-08T12:21:44.922Z,88.20
2018-07-08T12:24:14.242Z,86.90
2018-07-08T12:26:43.440Z,87.20
2018-07-08T12:29:12.517Z,88.60
2018-07-08T12:31:41.782Z,86.60
2018-07-08T12:34:10.872Z,86.20
2018-07-08T12:36:40.414Z,84.40
2018-07-08T12:39:11.632Z,83.70
2018-07-08T12:41:41.765Z,83.10
2018-07-08T12:44:11.378Z,81.60
2018-07-08T12:46:40.462Z,82.10
2018-07-08T12:49:10.434Z,88.20
2018-07-08T12:51:39.626Z,81.60
2018-07-08T12:54:09.206Z,81.80
2018-07-08T12:56:38.383Z,79.60
2018-07-08T12:59:08.308Z,83.30
2018-07-08T13:01:37.467Z,81.60
2018-07-08T13:04:06.828Z,78.50
2018-07-08T13:06:35.963Z,80.60
2018-07-08T13:09:05.990Z,81.80
2018-07-08T13:11:35.377Z,82.40
2018-07-08T13:14:04.488Z,81.00
2018-07-08T13:16:34.507Z,81.20
2018-07-08T13:19:03.826Z,81.40
2018-07-08T13:21:33.311Z,81.00
2018-07-08T13:24:02.458Z,82.00
2018-07-08T13:26:32.433Z,80.00
2018-07-08T13:29:01.591Z,79.10
2018-07-08T13:31:31.010Z,77.70
2018-07-08T13:34:00.358Z,77.30
2018-07-08T13:36:29.456Z,76.80
2018-07-08T13:38:58.681Z,75.30
2018-07-08T13:41:27.903Z,75.70
2018-07-08T13:46:26.047Z,78.40
2018-07-08T13:48:55.279Z,76.60
2018-07-08T13:51:24.486Z,72.10
2018-07-08T13:56:23.075Z,77.00
2018-07-08T13:58:52.430Z,74.10
2018-07-08T14:01:21.514Z,75.20
2018-07-08T14:03:50.692Z,75.30
2018-07-08T14:08:48.961Z,76.80
2018-07-08T14:11:18.463Z,74.20
2018-07-08T14:13:47.552Z,73.60
2018-07-08T14:16:16.690Z,74.40
2018-07-08T14:18:45.988Z,75.20
2018-07-08T14:21:15.076Z,72.60
2018-07-08T14:23:44.184Z,74.10
2018-07-08T14:26:13.516Z,74.80
2018-07-08T14:28:42.706Z,72.50
2018-07-08T14:31:11.887Z,74.20
2018-07-08T14:33:41.118Z,74.10
2018-07-08T14:36:10.244Z,72.60
2018-07-08T14:38:39.432Z,74.50
2018-07-08T14:41:08.718Z,75.10
2018-07-08T14:43:38.142Z,74.60
2018-07-08T14:46:07.293Z,73.90
2018-07-08T14:48:36.956Z,72.70
2018-07-08T14:56:03.670Z,71.20
2018-07-08T14:58:33.286Z,71.80
2018-07-08T15:01:03.218Z,71.90
2018-07-08T15:03:32.519Z,71.00
2018-07-08T15:06:01.614Z,73.20
2018-07-08T15:08:30.809Z,70.20
2018-07-08T15:11:00.209Z,71.90
2018-07-08T15:13:29.418Z,72.80
2018-07-08T15:15:58.515Z,70.40
2018-07-08T15:18:27.757Z,70.80
2018-07-08T15:20:56.985Z,72.10
2018-07-08T15:23:26.019Z,72.60
2018-07-08T15:25:56.226Z,72.10
2018-07-08T15:28:25.343Z,73.60
2018-07-08T15:33:23.256Z,69.50
2018-07-08T15:35:52.362Z,70.20
2018-07-08T15:38:21.790Z,68.70
2018-07-08T15:40:51.074Z,68.60
2018-07-08T15:43:20.228Z,71.30
2018-07-08T15:45:49.886Z,71.30
2018-07-08T15:48:22.528Z,69.50
2018-07-08T15:50:56.572Z,71.00
2018-07-08T15:53:25.946Z,69.10
2018-07-08T15:55:56.079Z,69.90
2018-07-08T15:58:25.297Z,70.60
2018-07-08T16:00:54.718Z,71.00
2018-07-08T16:03:23.859Z,69.90
2018-07-08T16:05:53.009Z,71.00
2018-07-08T16:08:22.191Z,68.20
2018-07-08T16:10:51.327Z,69.60
2018-07-08T16:13:20.474Z,68.30
2018-07-08T16:15:50.429Z,67.50
2018-07-08T16:18:19.685Z,69.00
2018-07-08T16:20:48.917Z,65.80
2018-07-08T16:23:18.159Z,64.80
2018-07-08T16:25:47.369Z,66.70
2018-07-08T16:28:16.479Z,66.60
2018-07-08T16:30:45.690Z,66.20
2018-07-08T16:33:15.779Z,64.80
2018-07-08T16:35:47.623Z,67.00
2018-07-08T16:38:16.843Z,67.90
2018-07-08T16:40:46.121Z,65.00
2018-07-08T16:43:15.921Z,65.90
2018-07-08T16:45:45.163Z,67.30
2018-07-08T16:48:14.478Z,66.60
2018-07-08T16:50:43.697Z,66.30
2018-07-08T16:53:13.100Z,66.20
2018-07-08T16:55:42.448Z,66.30
2018-07-08T16:58:11.599Z,67.20
2018-07-08T17:00:40.939Z,65.90
2018-07-08T17:03:10.341Z,66.70
2018-07-08T17:05:39.663Z,66.70
2018-07-08T17:08:08.820Z,67.30
2018-07-08T17:10:38.025Z,66.20
2018-07-08T17:13:07.352Z,65.90
2018-07-08T17:15:36.543Z,65.00
2018-07-08T17:18:05.786Z,65.20
2018-07-08T17:20:35.147Z,65.00
2018-07-08T17:25:33.178Z,65.90
2018-07-08T17:28:02.567Z,65.70
2018-07-08T17:30:31.800Z,67.10
2018-07-08T17:35:30.569Z,70.40
2018-07-08T17:37:59.847Z,69.60
2018-07-08T17:40:29.067Z,65.10
2018-07-08T17:42:58.406Z,67.00
2018-07-08T17:45:27.555Z,65.60
2018-07-08T17:47:56.767Z,64.40
2018-07-08T17:50:25.995Z,63.40
2018-07-08T17:52:55.483Z,66.50
2018-07-08T17:55:24.921Z,66.70
2018-07-08T17:57:54.259Z,63.80
2018-07-08T18:00:23.898Z,62.30
2018-07-08T18:02:53.370Z,64.00
2018-07-08T18:05:23.074Z,68.50
2018-07-08T18:07:52.334Z,63.00
2018-07-08T18:10:21.614Z,62.50
2018-07-08T18:12:51.232Z,66.40
2018-07-08T18:15:20.508Z,63.40
2018-07-08T18:17:49.713Z,62.60
2018-07-08T18:20:18.988Z,62.80
2018-07-08T18:22:48.523Z,66.50
2018-07-08T18:25:18.003Z,63.90
2018-07-08T18:27:47.268Z,66.00
2018-07-08T18:30:16.563Z,66.90
2018-07-08T18:32:45.724Z,66.60
2018-07-08T18:35:15.106Z,67.40
2018-07-08T18:37:44.310Z,69.80
2018-07-08T18:40:13.833Z,70.50
2018-07-08T18:42:43.225Z,74.10
2018-07-08T18:45:12.340Z,76.20
2018-07-08T18:47:41.439Z,77.20
2018-07-08T18:52:39.794Z,80.30
2018-07-08T18:55:09.744Z,78.60
2018-07-08T18:57:39.126Z,75.90
2018-07-08T19:05:06.296Z,78.10
2018-07-08T19:07:35.623Z,77.20
2018-07-08T19:10:04.824Z,80.50
2018-07-08T19:15:03.769Z,81.70
2018-07-08T19:17:32.923Z,83.60
2018-07-08T19:22:30.988Z,82.40
2018-07-08T19:25:00.224Z,81.60
2018-07-08T19:27:29.931Z,82.70
2018-07-08T19:29:59.180Z,83.40
2018-07-08T19:32:28.445Z,83.10
2018-07-08T19:34:58.353Z,84.20
2018-07-08T19:37:27.652Z,85.50
2018-07-08T19:39:56.936Z,84.90
2018-07-08T19:44:55.101Z,86.00
2018-07-08T19:47:24.244Z,86.70
2018-07-08T19:52:22.141Z,87.00
2018-07-08T19:54:51.339Z,81.60
2018-07-08T19:57:20.663Z,84.30
2018-07-08T19:59:49.827Z,85.10
2018-07-08T20:02:19.017Z,85.80
2018-07-08T20:04:48.335Z,84.60
2018-07-08T20:07:17.617Z,81.20
2018-07-08T20:09:46.885Z,84.60
2018-07-08T20:12:16.215Z,85.10
2018-07-08T20:14:45.369Z,85.30
2018-07-08T20:17:14.669Z,81.50
2018-07-08T20:19:44.015Z,82.70
2018-07-08T20:22:13.733Z,81.30
2018-07-08T20:24:43.124Z,82.60
2018-07-08T20:27:12.325Z,83.50
2018-07-08T20:29:41.623Z,83.60
2018-07-08T20:32:10.818Z,83.00
2018-07-08T20:34:40.051Z,82.10
2018-07-08T20:37:10.093Z,81.60
2018-07-08T20:39:39.197Z,81.50
2018-07-08T20:44:37.233Z,80.80
2018-07-08T20:47:06.333Z,81.60
2018-07-08T20:49:35.625Z,81.60
2018-07-08T20:52:05.105Z,82.10
2018-07-08T20:59:32.279Z,85.40
2018-07-08T21:02:02.062Z,87.50
2018-07-08T21:04:31.253Z,88.60
2018-07-08T21:07:00.563Z,90.40
2018-07-08T21:09:29.798Z,91.20
2018-07-08T21:11:59.053Z,91.80
2018-07-08T21:14:28.408Z,91.60
2018-07-08T21:16:57.573Z,91.40
2018-07-08T21:21:55.641Z,91.10
2018-07-08T21:24:26.020Z,89.60
2018-07-08T21:26:55.193Z,90.60
2018-07-08T21:29:24.893Z,91.30
2018-07-08T21:34:22.903Z,90.50
2018-07-08T21:36:52.387Z,90.50
2018-07-08T21:39:21.469Z,91.00
2018-07-08T21:41:50.921Z,91.20
2018-07-08T21:44:20.357Z,91.90
2018-07-08T21:46:49.605Z,91.90
2018-07-08T21:49:18.793Z,91.60
2018-07-08T21:51:48.153Z,91.20
2018-07-08T21:54:17.313Z,92.00
2018-07-08T21:56:46.545Z,91.90
2018-07-08T21:59:15.955Z,92.10
2018-07-08T22:01:56.277Z,93.60
2018-07-08T22:04:25.993Z,93.90
2018-07-08T22:06:59.336Z,94.20
2018-07-08T22:09:28.869Z,95.10
2018-07-08T22:11:58.058Z,96.40
2018-07-08T22:14:27.474Z,93.00
2018-07-08T22:16:56.875Z,93.70
2018-07-08T22:19:26.330Z,93.10
2018-07-08T22:21:55.601Z,93.40
2018-07-08T22:24:25.017Z,92.70
2018-07-08T22:26:54.713Z,93.80
2018-07-08T22:29:23.970Z,94.10
2018-07-08T22:31:53.287Z,93.30
2018-07-08T22:34:22.397Z,93.10
2018-07-08T22:36:51.528Z,92.50
2018-07-08T22:39:20.920Z,92.80
2018-07-08T22:41:50.060Z,92.90
2018-07-08T22:44:19.377Z,93.10
2018-07-08T22:46:49.022Z,92.40
2018-07-08T22:49:18.248Z,92.50
2018-07-08T22:51:47.381Z,92.30
2018-07-08T22:54:16.859Z,92.40
2018-07-08T22:56:45.969Z,91.90
2018-07-08T22:59:15.179Z,91.90
2018-07-08T23:01:55.235Z,91.40
2018-07-08T23:04:24.592Z,91.90
2018-07-08T23:06:53.802Z,92.10
2018-07-08T23:09:23.087Z,91.60
2018-07-08T23:11:52.321Z,92.00
2018-07-08T23:14:21.453Z,92.90
2018-07-08T23:16:51.185Z,92.60
2018-07-08T23:19:20.627Z,93.00
2018-07-08T23:21:49.933Z,91.90
2018-07-08T23:24:19.254Z,92.60
2018-07-08T23:26:48.732Z,93.10
2018-07-08T23:29:17.951Z,93.50
2018-07-08T23:31:47.194Z,94.20
2018-07-08T23:34:16.401Z,93.80
2018-07-08T23:39:14.282Z,93.10
2018-07-08T23:44:12.360Z,93.90
2018-07-08T23:46:41.543Z,95.30
2018-07-08T23:49:11.390Z,94.50
2018-07-08T23:51:40.519Z,94.50
2018-07-08T23:54:09.729Z,94.90
2018-07-08T23:56:39.563Z,95.30
2018-07-08T23:59:08.731Z,94.70
